This is the latest recevied weather packets stored in our database for station/object N4OGP-WX. If no packets are shown the sender has not sent any weather packets the latest 1 day(s).
| Time | Temp. | Humidity | Pressure | Rain* | Wind** | Luminosity | Snow |
|---|---|---|---|---|---|---|---|
| 1778100988 | 25.56° C | 86% | 1011.4 hPa | 0 mm | - | - | - |
| 1778095258 | 26.11° C | 83% | 1012.5 hPa | 0 mm | - | - | - |
| 1778094717 | 26.11° C | 84% | 1012.6 hPa | 0 mm | - | - | - |
| 1778083828 | 23.89° C | 42% | 1020.4 hPa | 0 mm | - | - | - |
| 1778083557 | 23.89° C | 42% | 1020.4 hPa | 0 mm | - | - | - |
| 1778082477 | 25° C | 86% | 1013.5 hPa | 0 mm | - | - | - |
| 1778081937 | 25° C | 86% | 1013.4 hPa | 0 mm | - | - | - |
| 1778081877 | 25° C | 86% | 1013.3 hPa | 0 mm | - | - | - |
| 1778081817 | 25° C | 86% | 1013.3 hPa | 0 mm | - | - | - |
| 1778081697 | 23.89° C | 42% | 1020.4 hPa | 0 mm | - | - | - |
| 1778081577 | 23.89° C | 42% | 1020.4 hPa | 0 mm | - | - | - |
| 1778081517 | 23.89° C | 42% | 1020.4 hPa | 0 mm | - | - | - |
| 1778080947 | 23.89° C | 42% | 1020.4 hPa | 0 mm | - | - | - |
| 1778080708 | 24.44° C | 86% | 1013.1 hPa | 0 mm | - | - | - |
| 1778080437 | 24.44° C | 86% | 1013 hPa | 0 mm | - | - | - |
| 1778080257 | 23.89° C | 42% | 1020.4 hPa | 0 mm | - | - | - |
| 1778079987 | 24.44° C | 86% | 1013 hPa | 0 mm | - | - | - |
| 1778079927 | 23.89° C | 42% | 1020.4 hPa | 0 mm | - | - | - |
| 1778079387 | 23.89° C | 42% | 1020.4 hPa | 0 mm | - | - | - |
| 1778079177 | 24.44° C | 86% | 1013.1 hPa | 0 mm | - | - | - |
| 1778079117 | 24.44° C | 86% | 1013.1 hPa | 0 mm | - | - | - |
| 1778079057 | 24.44° C | 86% | 1013.1 hPa | 0 mm | - | - | - |
| 1778078817 | 23.89° C | 42% | 1020.4 hPa | 0 mm | - | - | - |
| 1778078697 | 24.44° C | 86% | 1013.1 hPa | 0 mm | - | - | - |
| 1778078637 | 24.44° C | 86% | 1013 hPa | 0 mm | - | - | - |
* Rain latest hour (hover to see other rain measurements)
** Current wind speed in m/s (hover to see current wind gust speed)